createdAt,value
2022-11-24T00:01:23.233Z,21.88
2022-11-24T00:03:55.189Z,19.98
2022-11-24T00:06:23.804Z,21.88
2022-11-24T00:08:52.525Z,20.88
2022-11-24T00:11:23.262Z,19.73
2022-11-24T00:13:50.948Z,21.17
2022-11-24T00:16:24.225Z,20.48
2022-11-24T00:18:55.190Z,20.60
2022-11-24T00:21:23.841Z,19.25
2022-11-24T00:23:51.714Z,21.33
2022-11-24T00:26:24.522Z,19.67
2022-11-24T00:28:54.084Z,18.98
2022-11-24T00:31:25.868Z,19.45
2022-11-24T00:33:55.776Z,22.75
2022-11-24T00:36:25.608Z,18.95
2022-11-24T00:38:57.463Z,22.73
2022-11-24T00:41:26.500Z,21.75
2022-11-24T00:43:54.390Z,21.83
2022-11-24T00:46:22.999Z,19.83
2022-11-24T00:48:50.817Z,22.60
2022-11-24T00:51:20.630Z,20.85
2022-11-24T00:53:48.299Z,23.48
2022-11-24T00:56:15.954Z,24.13
2022-11-24T00:58:43.242Z,22.70
2022-11-24T01:01:20.029Z,24.27
2022-11-24T01:03:47.810Z,20.95
2022-11-24T01:06:21.778Z,23.17
2022-11-24T01:08:49.318Z,25.35
2022-11-24T01:11:22.511Z,26.98
2022-11-24T01:13:56.298Z,26.77
2022-11-24T01:16:27.136Z,28.33
2022-11-24T01:18:55.459Z,23.83
2022-11-24T01:21:23.463Z,26.50
2022-11-24T01:23:51.246Z,26.63
2022-11-24T01:26:21.920Z,27.38
2022-11-24T01:28:53.993Z,32.65
2022-11-24T01:31:22.140Z,28.17
2022-11-24T01:33:49.435Z,27.25
2022-11-24T01:36:17.038Z,31.23
2022-11-24T01:38:44.368Z,32.22
2022-11-24T01:41:15.633Z,31.63
2022-11-24T01:43:44.194Z,36.17
2022-11-24T01:46:24.132Z,31.23
2022-11-24T01:49:14.547Z,30.25
2022-11-24T01:51:47.716Z,33.47
2022-11-24T01:54:20.383Z,35.47
2022-11-24T01:56:51.977Z,31.83
2022-11-24T01:59:21.173Z,37.80
2022-11-24T02:01:50.697Z,35.83
2022-11-24T02:04:24.101Z,32.63
2022-11-24T02:06:54.079Z,37.22
2022-11-24T02:09:30.322Z,33.78
2022-11-24T02:12:01.068Z,30.25
2022-11-24T02:14:29.188Z,27.75
2022-11-24T02:16:56.762Z,26.25
2022-11-24T02:19:31.679Z,25.92
2022-11-24T02:21:59.420Z,26.67
2022-11-24T02:24:48.392Z,22.42
2022-11-24T02:27:16.261Z,27.20
2022-11-24T02:29:43.766Z,25.67
2022-11-24T02:32:12.236Z,26.92
2022-11-24T02:34:39.515Z,26.17
2022-11-24T02:37:07.168Z,25.05
2022-11-24T02:39:34.766Z,25.35
2022-11-24T02:42:08.267Z,26.25
2022-11-24T02:44:41.171Z,24.48
2022-11-24T02:47:11.191Z,27.80
2022-11-24T02:49:38.962Z,23.05
2022-11-24T02:52:07.503Z,27.48
2022-11-24T02:54:35.060Z,26.23
2022-11-24T02:57:02.875Z,24.65
2022-11-24T02:59:30.193Z,22.90
2022-11-24T03:01:58.008Z,23.13
2022-11-24T03:04:25.441Z,18.20
2022-11-24T03:06:53.095Z,17.65
2022-11-24T03:09:20.790Z,20.80
2022-11-24T03:11:48.371Z,19.02
2022-11-24T03:14:15.715Z,20.75
2022-11-24T03:16:43.312Z,19.23
2022-11-24T03:19:10.846Z,18.67
2022-11-24T03:21:38.406Z,19.55
2022-11-24T03:24:05.933Z,18.00
2022-11-24T03:26:34.814Z,20.33
2022-11-24T03:29:02.137Z,18.65
2022-11-24T03:31:29.812Z,23.17
2022-11-24T03:33:57.124Z,21.48
2022-11-24T03:36:24.762Z,22.35
2022-11-24T03:38:52.092Z,23.13
2022-11-24T03:41:20.174Z,23.77
2022-11-24T03:43:47.896Z,22.88
2022-11-24T03:46:15.537Z,22.92
2022-11-24T03:48:42.861Z,26.00
2022-11-24T03:51:10.966Z,23.08
2022-11-24T03:53:38.436Z,27.00
2022-11-24T03:56:06.259Z,26.75
2022-11-24T03:58:33.806Z,24.80
2022-11-24T04:01:01.382Z,22.95
2022-11-24T04:03:28.868Z,26.27
2022-11-24T04:05:56.509Z,25.42
2022-11-24T04:08:23.749Z,26.92
2022-11-24T04:10:53.809Z,28.10
2022-11-24T04:13:24.882Z,27.08
2022-11-24T04:15:53.109Z,28.25
2022-11-24T04:18:20.994Z,27.33
2022-11-24T04:20:51.883Z,25.92
2022-11-24T04:23:19.293Z,25.55
2022-11-24T04:25:47.030Z,27.63
2022-11-24T04:28:14.443Z,27.10
2022-11-24T04:30:45.013Z,24.30
2022-11-24T04:33:13.346Z,23.85
2022-11-24T04:35:41.025Z,21.42
2022-11-24T04:38:08.367Z,24.02
2022-11-24T04:40:35.997Z,24.30
2022-11-24T04:43:03.249Z,24.25
2022-11-24T04:45:30.866Z,24.67
2022-11-24T04:47:58.174Z,23.10
2022-11-24T04:50:25.976Z,26.70
2022-11-24T04:52:53.276Z,23.00
2022-11-24T04:55:20.931Z,21.50
2022-11-24T04:57:48.225Z,25.73
2022-11-24T05:00:16.151Z,23.08
2022-11-24T05:02:43.499Z,23.25
2022-11-24T05:05:11.496Z,21.92
2022-11-24T05:07:39.224Z,23.02
2022-11-24T05:10:25.818Z,24.15
2022-11-24T05:12:57.321Z,25.27
2022-11-24T05:15:25.354Z,24.70
2022-11-24T05:17:52.744Z,26.00
2022-11-24T05:20:21.111Z,26.95
2022-11-24T05:22:48.644Z,32.53
2022-11-24T05:25:16.348Z,32.45
2022-11-24T05:27:43.909Z,36.28
2022-11-24T05:30:11.931Z,38.25
2022-11-24T05:32:39.133Z,35.40
2022-11-24T05:35:06.965Z,36.58
2022-11-24T05:37:35.064Z,37.67
2022-11-24T05:40:02.715Z,39.35
2022-11-24T05:42:46.739Z,34.78
2022-11-24T05:45:17.858Z,36.38
2022-11-24T05:47:45.588Z,33.20
2022-11-24T05:50:15.269Z,32.08
2022-11-24T05:52:42.938Z,32.58
2022-11-24T05:55:11.582Z,31.73
2022-11-24T05:57:39.387Z,31.48
2022-11-24T06:00:08.227Z,31.70
2022-11-24T06:02:41.791Z,40.53
2022-11-24T06:05:09.748Z,36.67
2022-11-24T06:07:37.602Z,40.47
2022-11-24T06:10:08.337Z,36.83
2022-11-24T06:12:36.224Z,36.10
2022-11-24T06:15:03.808Z,37.58
2022-11-24T06:17:31.314Z,40.97
2022-11-24T06:19:58.505Z,40.10
2022-11-24T06:22:26.064Z,37.42
2022-11-24T06:24:53.391Z,39.95
2022-11-24T06:27:20.847Z,38.55
2022-11-24T06:29:48.216Z,42.13
2022-11-24T06:32:15.487Z,42.17
2022-11-24T06:34:43.535Z,42.63
2022-11-24T06:37:11.003Z,44.17
2022-11-24T06:39:38.664Z,40.65
2022-11-24T06:42:06.074Z,37.65
2022-11-24T06:44:34.080Z,39.90
2022-11-24T06:47:02.040Z,34.47
2022-11-24T06:49:29.552Z,38.47
2022-11-24T06:51:56.810Z,36.35
2022-11-24T06:54:24.319Z,42.67
2022-11-24T06:56:59.874Z,39.15
2022-11-24T06:59:27.834Z,39.25
2022-11-24T07:01:55.182Z,35.85
2022-11-24T07:04:22.733Z,39.92
2022-11-24T07:06:49.964Z,37.40
2022-11-24T07:09:17.441Z,40.65
2022-11-24T07:11:44.705Z,34.75
2022-11-24T07:14:12.770Z,41.83
2022-11-24T07:16:40.600Z,37.22
2022-11-24T07:19:10.315Z,42.67
2022-11-24T07:21:37.605Z,37.65
2022-11-24T07:24:05.508Z,43.08
2022-11-24T07:26:37.299Z,40.38
2022-11-24T07:29:05.724Z,45.10
2022-11-24T07:31:33.096Z,47.92
2022-11-24T07:34:01.395Z,44.97
2022-11-24T07:36:28.603Z,44.53
2022-11-24T07:38:56.222Z,43.05
2022-11-24T07:41:23.559Z,43.33
2022-11-24T07:43:51.993Z,45.00
2022-11-24T07:46:20.132Z,42.40
2022-11-24T07:48:47.893Z,40.28
2022-11-24T07:51:15.953Z,46.58
2022-11-24T07:53:43.872Z,44.47
2022-11-24T07:56:12.606Z,35.35
2022-11-24T07:58:40.470Z,35.55
2022-11-24T08:01:18.107Z,36.10
2022-11-24T08:03:46.928Z,38.10
2022-11-24T08:06:38.585Z,37.13
2022-11-24T08:09:02.554Z,30.55
2022-11-24T08:11:31.721Z,32.67
2022-11-24T08:13:59.491Z,31.05
2022-11-24T08:16:26.821Z,29.90
2022-11-24T08:18:55.805Z,25.48
2022-11-24T08:21:25.324Z,26.35
2022-11-24T08:23:57.139Z,27.02
2022-11-24T08:26:25.269Z,27.13
2022-11-24T08:28:56.405Z,26.42
2022-11-24T08:31:27.417Z,25.48
2022-11-24T08:33:56.037Z,24.35
2022-11-24T08:36:23.336Z,22.38
2022-11-24T08:38:58.646Z,24.20
2022-11-24T08:41:27.640Z,20.27
2022-11-24T08:43:55.581Z,21.88
2022-11-24T08:46:23.996Z,25.83
2022-11-24T08:48:55.330Z,26.90
2022-11-24T08:51:26.268Z,26.65
2022-11-24T08:53:56.002Z,23.15
2022-11-24T08:56:23.647Z,22.92
2022-11-24T08:58:51.265Z,23.00
2022-11-24T09:01:18.885Z,25.35
2022-11-24T09:03:51.045Z,25.85
2022-11-24T09:06:23.255Z,25.13
2022-11-24T09:08:55.849Z,28.70
2022-11-24T09:11:24.142Z,27.02
2022-11-24T09:13:52.099Z,26.98
2022-11-24T09:16:21.816Z,25.23
2022-11-24T09:19:02.982Z,23.60
2022-11-24T09:21:34.418Z,22.75
2022-11-24T09:24:02.170Z,22.42
2022-11-24T09:26:34.697Z,22.77
2022-11-24T09:29:04.177Z,20.17
2022-11-24T09:31:36.069Z,23.45
2022-11-24T09:34:07.236Z,22.35
2022-11-24T09:36:35.338Z,21.88
2022-11-24T09:39:03.432Z,18.95
2022-11-24T09:42:02.340Z,21.45
2022-11-24T09:44:54.848Z,22.42
2022-11-24T09:47:51.159Z,20.00
2022-11-24T09:50:28.316Z,21.73
2022-11-24T09:53:18.054Z,24.45
2022-11-24T09:55:53.571Z,23.67
2022-11-24T09:58:39.420Z,20.63
2022-11-24T10:01:22.831Z,27.70
2022-11-24T10:03:52.090Z,22.13
2022-11-24T10:06:44.004Z,23.30
2022-11-24T10:09:23.568Z,23.92
2022-11-24T10:11:51.238Z,25.30
2022-11-24T10:14:50.345Z,23.45
2022-11-24T10:17:35.596Z,26.55
2022-11-24T10:20:16.156Z,25.90
2022-11-24T10:23:18.884Z,25.98
2022-11-24T10:25:59.165Z,22.73
2022-11-24T10:28:47.927Z,26.48
2022-11-24T10:31:36.489Z,22.15
2022-11-24T10:34:39.257Z,26.30
2022-11-24T10:37:32.952Z,21.30
2022-11-24T10:40:33.505Z,19.98
2022-11-24T10:43:10.476Z,26.15
2022-11-24T10:45:39.563Z,20.50
2022-11-24T10:48:14.692Z,25.05
2022-11-24T10:50:43.256Z,24.27
2022-11-24T10:53:34.531Z,23.70
2022-11-24T10:56:04.964Z,25.38
2022-11-24T10:58:38.548Z,19.63
2022-11-24T11:01:15.518Z,23.13
2022-11-24T11:03:58.236Z,23.08
2022-11-24T11:06:31.443Z,23.73
2022-11-24T11:09:08.121Z,21.00
2022-11-24T11:14:08.242Z,19.75
2022-11-24T11:16:46.019Z,19.63
2022-11-24T11:19:53.259Z,18.40
2022-11-24T11:22:31.754Z,24.10
2022-11-24T11:25:28.459Z,25.17
2022-11-24T11:28:31.461Z,21.80
2022-11-24T11:31:22.009Z,21.92
2022-11-24T11:34:19.281Z,22.42
2022-11-24T11:36:53.558Z,21.65
2022-11-24T11:39:23.525Z,23.40
2022-11-24T11:41:58.646Z,20.67
2022-11-24T11:44:37.958Z,23.50
2022-11-24T11:47:22.823Z,24.38
2022-11-24T11:49:50.556Z,32.33
2022-11-24T11:52:29.675Z,24.75
2022-11-24T11:55:06.179Z,21.85
2022-11-24T11:57:46.004Z,23.17
2022-11-24T12:00:19.456Z,21.23
2022-11-24T12:03:10.977Z,28.27
2022-11-24T12:05:56.933Z,30.10
2022-11-24T12:08:49.501Z,29.00
2022-11-24T12:12:11.158Z,29.00
2022-11-24T12:14:56.236Z,41.92
2022-11-24T12:17:41.042Z,34.97
2022-11-24T12:20:37.131Z,34.75
2022-11-24T12:23:23.234Z,39.90
2022-11-24T12:26:14.888Z,30.13
2022-11-24T12:28:57.013Z,24.88
2022-11-24T12:31:31.623Z,26.08
2022-11-24T12:34:23.474Z,23.27
2022-11-24T12:37:21.787Z,26.40
2022-11-24T12:40:02.639Z,27.52
2022-11-24T12:42:38.940Z,37.50
2022-11-24T12:45:09.181Z,29.38
2022-11-24T12:48:13.412Z,35.85
2022-11-24T12:50:43.445Z,27.50
2022-11-24T12:53:23.801Z,28.45
2022-11-24T12:55:52.665Z,29.67
2022-11-24T12:58:32.214Z,27.05
2022-11-24T13:01:17.059Z,33.78
2022-11-24T13:04:06.079Z,31.13
2022-11-24T13:06:51.949Z,40.28
2022-11-24T13:09:19.470Z,31.63
2022-11-24T13:11:52.228Z,28.90
2022-11-24T13:14:36.926Z,26.65
2022-11-24T13:17:39.703Z,24.35
2022-11-24T13:20:23.870Z,22.27
2022-11-24T13:22:57.288Z,29.90
2022-11-24T13:25:31.445Z,28.67
2022-11-24T13:28:01.134Z,24.52
2022-11-24T13:30:34.345Z,24.33
2022-11-24T13:33:16.554Z,25.55
2022-11-24T13:36:02.732Z,27.02
2022-11-24T13:38:39.539Z,29.15
2022-11-24T13:41:28.197Z,32.67
2022-11-24T13:44:17.501Z,35.35
2022-11-24T13:47:06.736Z,26.38
2022-11-24T13:49:39.295Z,31.40
2022-11-24T13:52:37.744Z,43.10
2022-11-24T13:55:19.493Z,62.92
2022-11-24T13:57:52.775Z,55.13
2022-11-24T14:00:22.004Z,37.38
2022-11-24T14:02:51.406Z,29.85
2022-11-24T14:05:23.048Z,35.08
2022-11-24T14:07:52.981Z,35.83
2022-11-24T14:10:29.099Z,37.80
2022-11-24T14:13:21.390Z,28.67
2022-11-24T14:16:10.839Z,44.75
2022-11-24T14:18:40.378Z,31.30
2022-11-24T14:21:20.421Z,34.85
2022-11-24T14:24:12.558Z,33.08
2022-11-24T14:26:41.263Z,28.30
2022-11-24T14:29:14.452Z,25.73
2022-11-24T14:31:43.848Z,26.05
2022-11-24T14:34:23.140Z,35.70
2022-11-24T14:36:52.208Z,38.22
2022-11-24T14:39:23.110Z,38.78
2022-11-24T14:42:00.800Z,42.80
2022-11-24T14:44:54.238Z,44.97
2022-11-24T14:47:31.828Z,29.08
2022-11-24T14:50:16.270Z,39.60
2022-11-24T14:52:56.461Z,36.30
2022-11-24T14:55:39.224Z,42.67
2022-11-24T14:58:31.050Z,36.28
2022-11-24T15:01:29.799Z,41.63
2022-11-24T15:04:21.646Z,39.08
2022-11-24T15:07:18.988Z,40.95
2022-11-24T15:09:51.259Z,34.08
2022-11-24T15:12:41.502Z,35.47
2022-11-24T15:15:15.233Z,27.98
2022-11-24T15:17:56.229Z,33.40
2022-11-24T15:20:29.688Z,28.55
2022-11-24T15:23:25.985Z,39.50
2022-11-24T15:25:57.823Z,25.25
2022-11-24T15:28:28.464Z,26.55
2022-11-24T15:31:09.647Z,26.00
2022-11-24T15:33:37.066Z,25.55
2022-11-24T15:36:05.133Z,33.92
2022-11-24T15:38:32.402Z,35.10
2022-11-24T15:41:01.009Z,32.60
2022-11-24T15:43:37.135Z,26.75
2022-11-24T15:46:06.308Z,40.22
2022-11-24T15:48:33.933Z,42.80
2022-11-24T15:51:12.991Z,47.03
2022-11-24T15:53:45.161Z,44.78
2022-11-24T15:56:16.395Z,44.63
2022-11-24T15:58:43.648Z,81.28
2022-11-24T16:01:11.215Z,67.85
2022-11-24T16:03:46.888Z,67.05
2022-11-24T16:06:24.231Z,36.03
2022-11-24T16:08:53.380Z,28.60
2022-11-24T16:11:21.784Z,48.55
2022-11-24T16:13:52.975Z,48.47
2022-11-24T16:16:23.209Z,117.68
2022-11-24T16:18:50.711Z,74.25
2022-11-24T16:21:18.541Z,64.47
2022-11-24T16:23:46.585Z,48.72
2022-11-24T16:26:14.194Z,43.28
2022-11-24T16:28:42.096Z,32.03
2022-11-24T16:31:09.647Z,35.55
2022-11-24T16:33:40.741Z,35.63
2022-11-24T16:36:08.784Z,32.03
2022-11-24T16:38:36.023Z,29.08
2022-11-24T16:41:03.684Z,40.75
2022-11-24T16:43:30.836Z,41.83
2022-11-24T16:46:16.313Z,38.25
2022-11-24T16:48:44.933Z,35.35
2022-11-24T16:51:13.632Z,42.15
2022-11-24T16:53:41.688Z,38.60
2022-11-24T16:56:09.569Z,33.13
2022-11-24T16:58:41.289Z,40.03
2022-11-24T17:01:13.506Z,98.38
2022-11-24T17:03:41.067Z,45.80
2022-11-24T17:06:13.171Z,48.92
2022-11-24T17:08:41.215Z,42.33
2022-11-24T17:11:17.993Z,50.15
2022-11-24T17:13:47.405Z,52.95
2022-11-24T17:16:22.668Z,54.40
2022-11-24T17:18:50.440Z,48.97
2022-11-24T17:21:19.227Z,52.58
2022-11-24T17:23:46.789Z,54.03
2022-11-24T17:26:16.941Z,49.15
2022-11-24T17:28:44.966Z,49.83
2022-11-24T17:31:22.699Z,45.17
2022-11-24T17:33:50.665Z,43.05
2022-11-24T17:36:18.127Z,51.15
2022-11-24T17:38:45.589Z,63.53
2022-11-24T17:41:13.198Z,62.95
2022-11-24T17:43:41.123Z,55.90
2022-11-24T17:46:10.303Z,51.00
2022-11-24T17:48:37.585Z,56.20
2022-11-24T17:51:12.974Z,54.60
2022-11-24T17:53:42.706Z,75.63
2022-11-24T17:56:15.471Z,50.90
2022-11-24T17:58:43.515Z,52.15
2022-11-24T18:01:12.644Z,52.05
2022-11-24T18:03:40.944Z,52.00
2022-11-24T18:06:10.887Z,67.05
2022-11-24T18:08:43.669Z,63.58
2022-11-24T18:11:15.523Z,47.25
2022-11-24T18:14:00.951Z,42.25
2022-11-24T18:16:31.229Z,44.10
2022-11-24T18:19:10.043Z,43.15
2022-11-24T18:21:40.045Z,41.97
2022-11-24T18:24:11.476Z,41.95
2022-11-24T18:26:41.585Z,43.90
2022-11-24T18:29:11.791Z,44.53
2022-11-24T18:31:39.717Z,39.58
2022-11-24T18:34:07.808Z,38.13
2022-11-24T18:36:35.995Z,47.00
2022-11-24T18:39:05.421Z,50.58
2022-11-24T18:41:34.053Z,45.38
2022-11-24T18:44:13.784Z,88.60
2022-11-24T18:46:41.634Z,49.40
2022-11-24T18:49:09.275Z,51.45
2022-11-24T18:51:36.823Z,50.85
2022-11-24T18:54:05.552Z,51.67
2022-11-24T18:56:33.315Z,46.65
2022-11-24T18:59:00.581Z,49.35
2022-11-24T19:01:38.678Z,50.55
2022-11-24T19:04:05.956Z,47.47
2022-11-24T19:06:36.728Z,49.22
2022-11-24T19:09:07.290Z,48.95
2022-11-24T19:11:37.414Z,55.47
2022-11-24T19:14:07.637Z,55.85
2022-11-24T19:16:36.507Z,71.13
2022-11-24T19:19:04.568Z,59.60
2022-11-24T19:21:34.467Z,58.20
2022-11-24T19:24:05.372Z,69.82
2022-11-24T19:26:37.304Z,52.15
2022-11-24T19:29:06.174Z,53.38
2022-11-24T19:31:34.646Z,51.65
2022-11-24T19:34:03.184Z,65.70
2022-11-24T19:36:31.215Z,52.00
2022-11-24T19:38:59.018Z,42.42
2022-11-24T19:41:31.262Z,49.70
2022-11-24T19:43:59.259Z,64.57
2022-11-24T19:46:30.459Z,50.20
2022-11-24T19:49:02.569Z,114.07
2022-11-24T19:51:32.337Z,71.07
2022-11-24T19:54:00.688Z,105.55
2022-11-24T19:56:30.209Z,57.20
2022-11-24T19:58:58.103Z,43.08
2022-11-24T20:01:31.340Z,39.53
2022-11-24T20:04:04.518Z,39.13
2022-11-24T20:06:35.001Z,46.45
2022-11-24T20:09:03.672Z,43.38
2022-11-24T20:11:31.073Z,46.83
2022-11-24T20:13:59.112Z,35.30
2022-11-24T20:16:29.926Z,39.60
2022-11-24T20:19:00.834Z,39.97
2022-11-24T20:21:31.556Z,35.88
2022-11-24T20:24:08.415Z,36.10
2022-11-24T20:26:38.291Z,42.42
2022-11-24T20:29:08.754Z,44.28
2022-11-24T20:31:39.337Z,42.95
2022-11-24T20:34:07.899Z,47.40
2022-11-24T20:36:37.365Z,42.78
2022-11-24T20:39:08.084Z,47.83
2022-11-24T20:41:37.515Z,44.60
2022-11-24T20:44:08.694Z,50.33
2022-11-24T20:46:39.021Z,51.15
2022-11-24T20:49:08.619Z,49.92
2022-11-24T20:51:39.879Z,54.30
2022-11-24T20:54:08.936Z,45.35
2022-11-24T20:56:39.849Z,49.65
2022-11-24T20:59:08.899Z,46.22
2022-11-24T21:01:39.280Z,43.85
2022-11-24T21:04:10.116Z,47.63
2022-11-24T21:06:37.790Z,47.40
2022-11-24T21:09:06.673Z,47.55
2022-11-24T21:11:34.078Z,44.70
2022-11-24T21:14:01.966Z,40.58
2022-11-24T21:16:40.216Z,42.90
2022-11-24T21:19:11.711Z,46.58
2022-11-24T21:21:39.661Z,50.05
2022-11-24T21:24:15.995Z,49.97
2022-11-24T21:26:44.421Z,51.00
2022-11-24T21:29:13.967Z,58.63
2022-11-24T21:31:41.747Z,54.28
2022-11-24T21:34:09.941Z,45.60
2022-11-24T21:36:40.810Z,54.75
2022-11-24T21:39:12.203Z,44.92
2022-11-24T21:41:39.862Z,47.55
2022-11-24T21:44:07.394Z,43.00
2022-11-24T21:46:43.569Z,51.05
2022-11-24T21:49:13.752Z,44.55
2022-11-24T21:51:40.917Z,41.95
2022-11-24T21:54:08.967Z,42.47
2022-11-24T21:56:36.206Z,50.58
2022-11-24T21:59:03.768Z,44.53
2022-11-24T22:01:31.113Z,44.13
2022-11-24T22:03:59.000Z,49.20
2022-11-24T22:06:26.154Z,44.33
2022-11-24T22:08:54.821Z,46.38
2022-11-24T22:11:23.579Z,46.53
2022-11-24T22:13:51.811Z,49.40
2022-11-24T22:16:21.969Z,47.47
2022-11-24T22:18:50.284Z,47.38
2022-11-24T22:21:24.287Z,49.20
2022-11-24T22:23:52.844Z,55.08
2022-11-24T22:26:22.486Z,52.95
2022-11-24T22:28:50.856Z,53.88
2022-11-24T22:31:23.216Z,55.90
2022-11-24T22:33:51.683Z,48.92
2022-11-24T22:36:23.681Z,50.67
2022-11-24T22:39:04.358Z,47.42
2022-11-24T22:41:33.743Z,50.72
2022-11-24T22:44:01.632Z,48.85
2022-11-24T22:46:30.604Z,46.53
2022-11-24T22:49:01.915Z,42.10
2022-11-24T22:51:32.538Z,41.45
2022-11-24T22:54:02.756Z,44.10
2022-11-24T22:56:33.578Z,42.33
2022-11-24T22:59:02.153Z,46.25
2022-11-24T23:01:30.752Z,45.90
2022-11-24T23:03:58.761Z,45.92
2022-11-24T23:06:27.978Z,44.88
2022-11-24T23:08:56.777Z,45.60
2022-11-24T23:11:33.824Z,42.97
2022-11-24T23:14:07.120Z,46.92
2022-11-24T23:16:34.491Z,44.72
2022-11-24T23:19:01.942Z,52.28
2022-11-24T23:21:31.418Z,48.65
2022-11-24T23:24:01.067Z,44.50
2022-11-24T23:26:36.981Z,45.50
2022-11-24T23:29:05.693Z,50.27
2022-11-24T23:31:33.365Z,40.00
2022-11-24T23:34:02.875Z,44.42
2022-11-24T23:36:31.199Z,53.88
2022-11-24T23:39:03.875Z,44.92
2022-11-24T23:41:31.932Z,48.38
2022-11-24T23:44:00.119Z,48.60
2022-11-24T23:46:28.070Z,50.70
2022-11-24T23:48:55.976Z,47.08
2022-11-24T23:51:27.725Z,42.78
2022-11-24T23:56:37.945Z,49.17
2022-11-24T23:59:05.874Z,48.38
